sensor_id;sensor_type;location;lat;lon;timestamp;temperature;humidity
32787;DHT22;19139;49.372;8.580;2024-03-23T00:51:34;12.60;99.90
32787;DHT22;19139;49.372;8.580;2024-03-23T00:54:00;12.70;99.90
32787;DHT22;19139;49.372;8.580;2024-03-23T00:56:25;12.70;99.90
32787;DHT22;19139;49.372;8.580;2024-03-23T00:58:51;12.60;99.90
32787;DHT22;19139;49.372;8.580;2024-03-23T01:01:17;12.60;99.90
32787;DHT22;19139;49.372;8.580;2024-03-23T01:03:43;12.60;99.90
32787;DHT22;19139;49.372;8.580;2024-03-23T01:06:08;12.70;99.90
32787;DHT22;19139;49.372;8.580;2024-03-23T01:08:34;12.50;99.90
32787;DHT22;19139;49.372;8.580;2024-03-23T01:11:01;12.50;99.90
32787;DHT22;19139;49.372;8.580;2024-03-23T01:13:27;12.50;99.90
32787;DHT22;19139;49.372;8.580;2024-03-23T01:15:55;12.60;99.90
32787;DHT22;19139;49.372;8.580;2024-03-23T01:18:23;12.60;99.90
32787;DHT22;19139;49.372;8.580;2024-03-23T01:20:49;12.70;99.90
32787;DHT22;19139;49.372;8.580;2024-03-23T01:23:15;12.60;99.90
32787;DHT22;19139;49.372;8.580;2024-03-23T01:25:41;12.70;99.90
32787;DHT22;19139;49.372;8.580;2024-03-23T01:28:07;12.60;99.90
32787;DHT22;19139;49.372;8.580;2024-03-23T01:30:33;12.70;99.90
32787;DHT22;19139;49.372;8.580;2024-03-23T01:32:59;12.70;99.90
32787;DHT22;19139;49.372;8.580;2024-03-23T01:35:25;12.70;99.90
32787;DHT22;19139;49.372;8.580;2024-03-23T01:37:51;12.80;99.90
32787;DHT22;19139;49.372;8.580;2024-03-23T01:40:17;12.70;99.90
32787;DHT22;19139;49.372;8.580;2024-03-23T01:42:55;12.70;99.90
32787;DHT22;19139;49.372;8.580;2024-03-23T01:45:21;12.70;99.90
32787;DHT22;19139;49.372;8.580;2024-03-23T01:47:47;12.80;99.90
32787;DHT22;19139;49.372;8.580;2024-03-23T01:50:14;12.80;99.90
32787;DHT22;19139;49.372;8.580;2024-03-23T01:52:40;12.90;99.90
32787;DHT22;19139;49.372;8.580;2024-03-23T01:55:06;12.90;99.90
32787;DHT22;19139;49.372;8.580;2024-03-23T01:57:32;12.90;99.90
32787;DHT22;19139;49.372;8.580;2024-03-23T01:59:58;12.90;99.90
32787;DHT22;19139;49.372;8.580;2024-03-23T02:02:24;13.10;99.90
32787;DHT22;19139;49.372;8.580;2024-03-23T02:04:49;13.00;99.90
32787;DHT22;19139;49.372;8.580;2024-03-23T02:07:15;13.10;99.90
32787;DHT22;19139;49.372;8.580;2024-03-23T02:09:41;13.10;99.90
32787;DHT22;19139;49.372;8.580;2024-03-23T02:12:07;13.10;99.90
32787;DHT22;19139;49.372;8.580;2024-03-23T02:14:33;13.10;99.90
32787;DHT22;19139;49.372;8.580;2024-03-23T02:16:59;13.00;99.90
32787;DHT22;19139;49.372;8.580;2024-03-23T02:19:25;13.00;99.90
32787;DHT22;19139;49.372;8.580;2024-03-23T02:21:50;13.00;99.90
32787;DHT22;19139;49.372;8.580;2024-03-23T02:24:16;13.00;99.90
32787;DHT22;19139;49.372;8.580;2024-03-23T02:26:42;13.00;99.90
32787;DHT22;19139;49.372;8.580;2024-03-23T02:29:07;13.10;99.90
32787;DHT22;19139;49.372;8.580;2024-03-23T02:31:35;13.00;99.90
32787;DHT22;19139;49.372;8.580;2024-03-23T02:34:01;13.10;99.90
32787;DHT22;19139;49.372;8.580;2024-03-23T02:36:27;13.10;99.90
32787;DHT22;19139;49.372;8.580;2024-03-23T02:38:53;13.00;99.90
32787;DHT22;19139;49.372;8.580;2024-03-23T02:41:19;13.00;99.90
32787;DHT22;19139;49.372;8.580;2024-03-23T02:43:49;13.10;99.90
32787;DHT22;19139;49.372;8.580;2024-03-23T02:46:15;13.10;99.90
32787;DHT22;19139;49.372;8.580;2024-03-23T02:48:41;13.00;99.90
32787;DHT22;19139;49.372;8.580;2024-03-23T02:51:07;12.90;99.90
32787;DHT22;19139;49.372;8.580;2024-03-23T02:53:33;12.90;99.90
32787;DHT22;19139;49.372;8.580;2024-03-23T02:55:59;13.00;99.90
32787;DHT22;19139;49.372;8.580;2024-03-23T02:58:24;12.90;99.90
32787;DHT22;19139;49.372;8.580;2024-03-23T03:00:50;12.90;99.90
32787;DHT22;19139;49.372;8.580;2024-03-23T03:03:16;12.80;99.90
32787;DHT22;19139;49.372;8.580;2024-03-23T03:05:42;12.80;99.90
32787;DHT22;19139;49.372;8.580;2024-03-23T03:08:08;12.80;99.90
32787;DHT22;19139;49.372;8.580;2024-03-23T03:10:33;12.80;99.90
32787;DHT22;19139;49.372;8.580;2024-03-23T03:13:02;12.90;99.90
32787;DHT22;19139;49.372;8.580;2024-03-23T03:15:28;12.80;99.90
32787;DHT22;19139;49.372;8.580;2024-03-23T03:17:54;12.80;99.90
32787;DHT22;19139;49.372;8.580;2024-03-23T03:20:20;12.80;99.90
32787;DHT22;19139;49.372;8.580;2024-03-23T03:22:47;12.80;99.90
32787;DHT22;19139;49.372;8.580;2024-03-23T03:25:13;12.90;99.90
32787;DHT22;19139;49.372;8.580;2024-03-23T03:27:39;12.80;99.90
32787;DHT22;19139;49.372;8.580;2024-03-23T03:30:05;12.90;99.90
32787;DHT22;19139;49.372;8.580;2024-03-23T03:32:32;13.00;99.90
32787;DHT22;19139;49.372;8.580;2024-03-23T03:34:58;12.90;99.90
32787;DHT22;19139;49.372;8.580;2024-03-23T03:37:24;12.90;99.90
32787;DHT22;19139;49.372;8.580;2024-03-23T03:39:50;12.90;99.90
32787;DHT22;19139;49.372;8.580;2024-03-23T03:42:16;12.80;99.90
32787;DHT22;19139;49.372;8.580;2024-03-23T03:44:42;12.90;99.90
32787;DHT22;19139;49.372;8.580;2024-03-23T03:47:08;12.90;99.90
32787;DHT22;19139;49.372;8.580;2024-03-23T03:49:33;12.70;99.90
32787;DHT22;19139;49.372;8.580;2024-03-23T03:51:59;12.80;99.90
32787;DHT22;19139;49.372;8.580;2024-03-23T03:54:26;12.70;99.90
32787;DHT22;19139;49.372;8.580;2024-03-23T03:56:52;12.70;99.90
32787;DHT22;19139;49.372;8.580;2024-03-23T03:59:18;12.70;99.90
32787;DHT22;19139;49.372;8.580;2024-03-23T04:01:46;12.70;99.90
32787;DHT22;19139;49.372;8.580;2024-03-23T04:04:11;12.70;99.90
32787;DHT22;19139;49.372;8.580;2024-03-23T04:06:37;12.70;99.90
32787;DHT22;19139;49.372;8.580;2024-03-23T04:09:03;12.70;99.90
32787;DHT22;19139;49.372;8.580;2024-03-23T04:11:29;12.70;99.90
32787;DHT22;19139;49.372;8.580;2024-03-23T04:13:55;12.70;99.90
32787;DHT22;19139;49.372;8.580;2024-03-23T04:16:35;12.70;99.90
32787;DHT22;19139;49.372;8.580;2024-03-23T04:19:01;12.70;99.90
32787;DHT22;19139;49.372;8.580;2024-03-23T04:21:27;12.80;99.90
32787;DHT22;19139;49.372;8.580;2024-03-23T04:23:53;12.80;99.90
32787;DHT22;19139;49.372;8.580;2024-03-23T04:26:18;12.70;99.90
32787;DHT22;19139;49.372;8.580;2024-03-23T04:28:44;12.80;99.90
32787;DHT22;19139;49.372;8.580;2024-03-23T04:31:10;12.80;99.90
32787;DHT22;19139;49.372;8.580;2024-03-23T04:33:36;12.80;99.90
32787;DHT22;19139;49.372;8.580;2024-03-23T04:36:01;12.80;99.90
32787;DHT22;19139;49.372;8.580;2024-03-23T04:38:28;12.80;99.90
32787;DHT22;19139;49.372;8.580;2024-03-23T04:40:58;12.70;99.90
32787;DHT22;19139;49.372;8.580;2024-03-23T04:43:25;12.70;99.90
32787;DHT22;19139;49.372;8.580;2024-03-23T04:45:50;12.60;99.90
32787;DHT22;19139;49.372;8.580;2024-03-23T04:48:17;12.70;99.90
32787;DHT22;19139;49.372;8.580;2024-03-23T04:50:43;12.70;99.90
32787;DHT22;19139;49.372;8.580;2024-03-23T04:53:09;12.60;99.90
32787;DHT22;19139;49.372;8.580;2024-03-23T04:55:34;12.60;99.90
32787;DHT22;19139;49.372;8.580;2024-03-23T04:58:00;12.70;99.90
32787;DHT22;19139;49.372;8.580;2024-03-23T05:00:26;12.50;99.90
32787;DHT22;19139;49.372;8.580;2024-03-23T05:02:52;12.40;99.90
32787;DHT22;19139;49.372;8.580;2024-03-23T05:05:18;12.50;99.90
32787;DHT22;19139;49.372;8.580;2024-03-23T05:07:44;12.50;99.90
32787;DHT22;19139;49.372;8.580;2024-03-23T05:10:10;12.50;99.90
32787;DHT22;19139;49.372;8.580;2024-03-23T05:12:37;12.50;99.90
32787;DHT22;19139;49.372;8.580;2024-03-23T05:15:04;12.60;99.90
32787;DHT22;19139;49.372;8.580;2024-03-23T05:17:31;12.60;99.90
32787;DHT22;19139;49.372;8.580;2024-03-23T05:19:57;12.50;99.90
32787;DHT22;19139;49.372;8.580;2024-03-23T05:22:23;12.40;99.90
32787;DHT22;19139;49.372;8.580;2024-03-23T05:24:49;12.40;99.90
32787;DHT22;19139;49.372;8.580;2024-03-23T05:27:15;12.40;99.90
32787;DHT22;19139;49.372;8.580;2024-03-23T05:29:40;12.30;99.90
32787;DHT22;19139;49.372;8.580;2024-03-23T05:32:07;12.20;99.90
32787;DHT22;19139;49.372;8.580;2024-03-23T05:34:33;12.10;99.90
32787;DHT22;19139;49.372;8.580;2024-03-23T05:36:59;12.10;99.90
32787;DHT22;19139;49.372;8.580;2024-03-23T05:39:25;12.00;99.90
32787;DHT22;19139;49.372;8.580;2024-03-23T05:41:51;11.90;99.90
32787;DHT22;19139;49.372;8.580;2024-03-23T05:44:17;11.30;99.90
32787;DHT22;19139;49.372;8.580;2024-03-23T05:46:42;10.80;99.90
32787;DHT22;19139;49.372;8.580;2024-03-23T05:49:14;10.60;99.90
32787;DHT22;19139;49.372;8.580;2024-03-23T05:51:39;10.60;99.90
32787;DHT22;19139;49.372;8.580;2024-03-23T05:54:05;10.50;99.90
32787;DHT22;19139;49.372;8.580;2024-03-23T05:56:31;10.40;99.90
32787;DHT22;19139;49.372;8.580;2024-03-23T05:58:57;10.30;99.90
32787;DHT22;19139;49.372;8.580;2024-03-23T06:01:23;10.20;99.90
32787;DHT22;19139;49.372;8.580;2024-03-23T06:03:49;10.30;99.90
32787;DHT22;19139;49.372;8.580;2024-03-23T06:06:15;10.20;99.90
32787;DHT22;19139;49.372;8.580;2024-03-23T06:08:41;10.30;99.90
32787;DHT22;19139;49.372;8.580;2024-03-23T06:11:07;10.20;99.90
32787;DHT22;19139;49.372;8.580;2024-03-23T06:13:33;10.00;99.90
32787;DHT22;19139;49.372;8.580;2024-03-23T06:16:00;10.10;99.90
32787;DHT22;19139;49.372;8.580;2024-03-23T06:18:25;10.10;99.90
32787;DHT22;19139;49.372;8.580;2024-03-23T06:20:51;10.10;99.90
32787;DHT22;19139;49.372;8.580;2024-03-23T06:23:17;10.10;99.90
32787;DHT22;19139;49.372;8.580;2024-03-23T06:25:46;10.10;99.90
32787;DHT22;19139;49.372;8.580;2024-03-23T06:28:12;10.30;99.90
32787;DHT22;19139;49.372;8.580;2024-03-23T06:30:38;10.40;99.90
32787;DHT22;19139;49.372;8.580;2024-03-23T06:33:04;10.10;99.90
32787;DHT22;19139;49.372;8.580;2024-03-23T06:35:31;10.10;99.90
32787;DHT22;19139;49.372;8.580;2024-03-23T06:37:57;10.40;99.90
32787;DHT22;19139;49.372;8.580;2024-03-23T06:40:24;10.20;99.90
32787;DHT22;19139;49.372;8.580;2024-03-23T06:42:50;10.20;99.90
32787;DHT22;19139;49.372;8.580;2024-03-23T06:45:16;10.10;99.90
32787;DHT22;19139;49.372;8.580;2024-03-23T06:47:44;10.30;99.90
32787;DHT22;19139;49.372;8.580;2024-03-23T06:50:10;10.30;99.90
32787;DHT22;19139;49.372;8.580;2024-03-23T06:52:37;10.10;99.90
32787;DHT22;19139;49.372;8.580;2024-03-23T06:55:02;10.10;99.90
32787;DHT22;19139;49.372;8.580;2024-03-23T06:57:30;10.00;99.90
32787;DHT22;19139;49.372;8.580;2024-03-23T06:59:56;9.80;99.90
32787;DHT22;19139;49.372;8.580;2024-03-23T07:02:22;9.90;99.90
32787;DHT22;19139;49.372;8.580;2024-03-23T07:04:48;9.70;99.90
32787;DHT22;19139;49.372;8.580;2024-03-23T07:07:13;9.90;99.90
32787;DHT22;19139;49.372;8.580;2024-03-23T07:09:39;9.70;99.90
32787;DHT22;19139;49.372;8.580;2024-03-23T07:12:05;9.90;99.90
32787;DHT22;19139;49.372;8.580;2024-03-23T07:14:31;9.70;99.90
32787;DHT22;19139;49.372;8.580;2024-03-23T07:16:57;10.00;99.90
32787;DHT22;19139;49.372;8.580;2024-03-23T07:19:23;10.10;99.90
32787;DHT22;19139;49.372;8.580;2024-03-23T07:21:50;9.90;99.90
32787;DHT22;19139;49.372;8.580;2024-03-23T07:24:16;9.90;99.90
32787;DHT22;19139;49.372;8.580;2024-03-23T07:26:41;9.90;99.90
32787;DHT22;19139;49.372;8.580;2024-03-23T07:29:07;9.60;99.90
32787;DHT22;19139;49.372;8.580;2024-03-23T07:31:33;9.70;99.90
32787;DHT22;19139;49.372;8.580;2024-03-23T07:33:59;9.70;99.90
32787;DHT22;19139;49.372;8.580;2024-03-23T07:36:25;9.70;99.90
32787;DHT22;19139;49.372;8.580;2024-03-23T07:38:51;9.80;99.90
32787;DHT22;19139;49.372;8.580;2024-03-23T07:41:19;9.70;99.90
32787;DHT22;19139;49.372;8.580;2024-03-23T07:43:46;9.70;99.90
32787;DHT22;19139;49.372;8.580;2024-03-23T07:46:13;9.80;99.90
32787;DHT22;19139;49.372;8.580;2024-03-23T07:48:39;9.70;99.90
32787;DHT22;19139;49.372;8.580;2024-03-23T07:51:21;9.70;99.90
32787;DHT22;19139;49.372;8.580;2024-03-23T07:53:48;9.80;99.90
32787;DHT22;19139;49.372;8.580;2024-03-23T07:56:15;9.70;99.90
32787;DHT22;19139;49.372;8.580;2024-03-23T07:58:41;9.60;99.90
32787;DHT22;19139;49.372;8.580;2024-03-23T08:01:12;9.80;99.90
32787;DHT22;19139;49.372;8.580;2024-03-23T08:03:41;9.80;99.90
32787;DHT22;19139;49.372;8.580;2024-03-23T08:06:14;9.80;99.90
32787;DHT22;19139;49.372;8.580;2024-03-23T08:08:43;9.70;99.90
32787;DHT22;19139;49.372;8.580;2024-03-23T08:11:09;10.00;99.90
32787;DHT22;19139;49.372;8.580;2024-03-23T08:13:35;10.10;99.90
32787;DHT22;19139;49.372;8.580;2024-03-23T08:16:02;10.10;99.90
32787;DHT22;19139;49.372;8.580;2024-03-23T08:18:29;10.30;99.90
32787;DHT22;19139;49.372;8.580;2024-03-23T08:21:02;10.00;99.90
32787;DHT22;19139;49.372;8.580;2024-03-23T08:23:29;10.10;99.90
32787;DHT22;19139;49.372;8.580;2024-03-23T08:26:00;10.10;99.90
32787;DHT22;19139;49.372;8.580;2024-03-23T08:28:26;10.20;99.90
32787;DHT22;19139;49.372;8.580;2024-03-23T08:30:55;10.30;99.90
32787;DHT22;19139;49.372;8.580;2024-03-23T08:33:22;10.80;99.90
32787;DHT22;19139;49.372;8.580;2024-03-23T08:35:56;10.60;99.90
32787;DHT22;19139;49.372;8.580;2024-03-23T08:38:23;10.70;99.90
32787;DHT22;19139;49.372;8.580;2024-03-23T08:41:03;10.70;99.90
32787;DHT22;19139;49.372;8.580;2024-03-23T08:43:30;11.20;99.90
32787;DHT22;19139;49.372;8.580;2024-03-23T08:46:06;10.90;99.90
32787;DHT22;19139;49.372;8.580;2024-03-23T08:48:45;11.10;99.90
32787;DHT22;19139;49.372;8.580;2024-03-23T08:51:16;11.10;99.90
32787;DHT22;19139;49.372;8.580;2024-03-23T08:53:43;11.00;99.90
32787;DHT22;19139;49.372;8.580;2024-03-23T08:56:09;10.60;99.90
32787;DHT22;19139;49.372;8.580;2024-03-23T08:58:36;10.40;99.90
32787;DHT22;19139;49.372;8.580;2024-03-23T09:01:09;10.50;99.90
32787;DHT22;19139;49.372;8.580;2024-03-23T09:03:36;10.80;99.90
32787;DHT22;19139;49.372;8.580;2024-03-23T09:06:09;10.80;99.90
32787;DHT22;19139;49.372;8.580;2024-03-23T09:08:36;10.70;99.90
32787;DHT22;19139;49.372;8.580;2024-03-23T09:11:06;10.50;99.90
32787;DHT22;19139;49.372;8.580;2024-03-23T09:13:37;10.70;99.90
32787;DHT22;19139;49.372;8.580;2024-03-23T09:16:04;10.70;99.90
32787;DHT22;19139;49.372;8.580;2024-03-23T09:18:35;10.80;99.90
32787;DHT22;19139;49.372;8.580;2024-03-23T09:21:01;11.00;99.90
32787;DHT22;19139;49.372;8.580;2024-03-23T09:23:28;10.90;99.90
32787;DHT22;19139;49.372;8.580;2024-03-23T09:25:54;10.90;99.90
32787;DHT22;19139;49.372;8.580;2024-03-23T09:28:19;11.40;99.90
32787;DHT22;19139;49.372;8.580;2024-03-23T09:30:45;11.00;99.90
32787;DHT22;19139;49.372;8.580;2024-03-23T09:33:12;11.60;99.90
32787;DHT22;19139;49.372;8.580;2024-03-23T09:35:38;11.60;99.90
32787;DHT22;19139;49.372;8.580;2024-03-23T09:38:04;11.40;99.90
32787;DHT22;19139;49.372;8.580;2024-03-23T09:40:31;11.00;99.90
32787;DHT22;19139;49.372;8.580;2024-03-23T09:42:57;11.00;99.90
32787;DHT22;19139;49.372;8.580;2024-03-23T09:45:29;10.70;99.40
32787;DHT22;19139;49.372;8.580;2024-03-23T09:47:56;10.70;98.90
32787;DHT22;19139;49.372;8.580;2024-03-23T09:50:22;10.60;98.30
32787;DHT22;19139;49.372;8.580;2024-03-23T09:52:48;10.70;98.30
32787;DHT22;19139;49.372;8.580;2024-03-23T09:55:14;10.80;98.40
32787;DHT22;19139;49.372;8.580;2024-03-23T09:57:41;10.70;98.20
32787;DHT22;19139;49.372;8.580;2024-03-23T10:00:08;10.70;97.10
32787;DHT22;19139;49.372;8.580;2024-03-23T10:02:35;10.80;97.40
32787;DHT22;19139;49.372;8.580;2024-03-23T10:05:02;10.90;97.20
32787;DHT22;19139;49.372;8.580;2024-03-23T10:07:27;10.90;97.30
32787;DHT22;19139;49.372;8.580;2024-03-23T10:11:19;11.00;96.90
32787;DHT22;19139;49.372;8.580;2024-03-23T10:13:47;10.80;96.80
32787;DHT22;19139;49.372;8.580;2024-03-23T10:16:21;10.90;96.80
32787;DHT22;19139;49.372;8.580;2024-03-23T10:18:47;11.00;96.50
32787;DHT22;19139;49.372;8.580;2024-03-23T10:21:15;11.00;96.10
32787;DHT22;19139;49.372;8.580;2024-03-23T10:23:42;11.00;96.20
32787;DHT22;19139;49.372;8.580;2024-03-23T10:26:21;11.30;96.30
32787;DHT22;19139;49.372;8.580;2024-03-23T10:28:58;11.40;95.00
32787;DHT22;19139;49.372;8.580;2024-03-23T10:31:30;11.40;94.80
32787;DHT22;19139;49.372;8.580;2024-03-23T10:33:56;11.30;93.70
32787;DHT22;19139;49.372;8.580;2024-03-23T10:36:22;11.20;93.70
32787;DHT22;19139;49.372;8.580;2024-03-23T10:38:50;11.40;93.80
32787;DHT22;19139;49.372;8.580;2024-03-23T10:41:16;11.30;93.80
32787;DHT22;19139;49.372;8.580;2024-03-23T10:43:43;11.50;93.10
32787;DHT22;19139;49.372;8.580;2024-03-23T10:46:10;11.40;93.20
32787;DHT22;19139;49.372;8.580;2024-03-23T10:48:36;11.50;93.30
32787;DHT22;19139;49.372;8.580;2024-03-23T10:51:02;11.90;93.00
32787;DHT22;19139;49.372;8.580;2024-03-23T10:53:28;12.00;91.30
32787;DHT22;19139;49.372;8.580;2024-03-23T10:55:56;11.90;91.00
32787;DHT22;19139;49.372;8.580;2024-03-23T10:58:51;12.10;90.80
32787;DHT22;19139;49.372;8.580;2024-03-23T11:01:18;12.10;90.90
32787;DHT22;19139;49.372;8.580;2024-03-23T11:03:47;12.00;90.20
32787;DHT22;19139;49.372;8.580;2024-03-23T11:06:36;12.00;90.40
32787;DHT22;19139;49.372;8.580;2024-03-23T11:09:02;11.70;90.30
32787;DHT22;19139;49.372;8.580;2024-03-23T11:11:28;11.60;90.20
32787;DHT22;19139;49.372;8.580;2024-03-23T11:13:57;11.70;90.10
32787;DHT22;19139;49.372;8.580;2024-03-23T11:16:26;11.80;87.60
32787;DHT22;19139;49.372;8.580;2024-03-23T11:18:54;12.20;87.30
32787;DHT22;19139;49.372;8.580;2024-03-23T11:21:52;12.10;85.70
32787;DHT22;19139;49.372;8.580;2024-03-23T11:24:22;12.10;84.60
32787;DHT22;19139;49.372;8.580;2024-03-23T11:26:48;12.20;84.00
32787;DHT22;19139;49.372;8.580;2024-03-23T11:29:16;12.30;83.50
32787;DHT22;19139;49.372;8.580;2024-03-23T11:31:52;12.60;83.30
32787;DHT22;19139;49.372;8.580;2024-03-23T11:34:19;12.30;83.00
32787;DHT22;19139;49.372;8.580;2024-03-23T11:36:46;12.40;84.20
32787;DHT22;19139;49.372;8.580;2024-03-23T11:39:16;12.10;83.50
32787;DHT22;19139;49.372;8.580;2024-03-23T11:41:50;12.10;84.00
32787;DHT22;19139;49.372;8.580;2024-03-23T11:44:20;11.90;83.40
32787;DHT22;19139;49.372;8.580;2024-03-23T11:46:48;11.90;84.40
32787;DHT22;19139;49.372;8.580;2024-03-23T11:49:25;11.90;84.60
32787;DHT22;19139;49.372;8.580;2024-03-23T11:51:52;12.10;84.60
32787;DHT22;19139;49.372;8.580;2024-03-23T11:54:24;12.10;86.60
32787;DHT22;19139;49.372;8.580;2024-03-23T11:57:04;12.00;86.90
32787;DHT22;19139;49.372;8.580;2024-03-23T12:02:00;11.60;85.80
32787;DHT22;19139;49.372;8.580;2024-03-23T12:04:27;11.00;91.10
32787;DHT22;19139;49.372;8.580;2024-03-23T12:07:14;10.90;93.60
32787;DHT22;19139;49.372;8.580;2024-03-23T12:09:41;10.40;98.30
32787;DHT22;19139;49.372;8.580;2024-03-23T12:12:15;9.30;99.90
32787;DHT22;19139;49.372;8.580;2024-03-23T12:14:46;8.30;99.90
32787;DHT22;19139;49.372;8.580;2024-03-23T12:17:26;8.90;99.90
32787;DHT22;19139;49.372;8.580;2024-03-23T12:19:52;8.50;99.90
32787;DHT22;19139;49.372;8.580;2024-03-23T12:22:22;8.70;99.90
32787;DHT22;19139;49.372;8.580;2024-03-23T12:24:48;8.40;99.90
32787;DHT22;19139;49.372;8.580;2024-03-23T12:27:14;8.40;99.90
32787;DHT22;19139;49.372;8.580;2024-03-23T12:29:40;8.70;99.90
32787;DHT22;19139;49.372;8.580;2024-03-23T12:32:11;8.50;99.90
32787;DHT22;19139;49.372;8.580;2024-03-23T12:34:38;8.40;99.90
32787;DHT22;19139;49.372;8.580;2024-03-23T12:37:04;8.20;99.90
32787;DHT22;19139;49.372;8.580;2024-03-23T12:39:30;7.50;99.90
32787;DHT22;19139;49.372;8.580;2024-03-23T12:41:55;7.90;99.90
32787;DHT22;19139;49.372;8.580;2024-03-23T12:44:21;8.70;99.90
32787;DHT22;19139;49.372;8.580;2024-03-23T12:46:47;9.10;99.90
32787;DHT22;19139;49.372;8.580;2024-03-23T12:49:13;9.10;99.90
32787;DHT22;19139;49.372;8.580;2024-03-23T12:51:39;9.30;99.90
32787;DHT22;19139;49.372;8.580;2024-03-23T12:54:11;9.40;99.90
32787;DHT22;19139;49.372;8.580;2024-03-23T12:56:37;9.50;99.90
32787;DHT22;19139;49.372;8.580;2024-03-23T12:59:02;9.60;99.90
32787;DHT22;19139;49.372;8.580;2024-03-23T13:01:28;9.70;99.90
32787;DHT22;19139;49.372;8.580;2024-03-23T13:03:54;9.70;99.90
32787;DHT22;19139;49.372;8.580;2024-03-23T13:06:20;9.70;99.90
32787;DHT22;19139;49.372;8.580;2024-03-23T13:08:46;8.90;99.90
32787;DHT22;19139;49.372;8.580;2024-03-23T13:11:13;8.10;99.90
32787;DHT22;19139;49.372;8.580;2024-03-23T13:13:40;7.00;99.90
32787;DHT22;19139;49.372;8.580;2024-03-23T13:16:06;6.10;99.90
32787;DHT22;19139;49.372;8.580;2024-03-23T13:18:32;6.30;99.90
32787;DHT22;19139;49.372;8.580;2024-03-23T13:20:58;6.20;99.90
32787;DHT22;19139;49.372;8.580;2024-03-23T13:23:24;6.90;99.90
32787;DHT22;19139;49.372;8.580;2024-03-23T13:25:54;7.40;99.90
32787;DHT22;19139;49.372;8.580;2024-03-23T13:28:21;7.40;99.90
32787;DHT22;19139;49.372;8.580;2024-03-23T13:30:53;7.50;99.90
32787;DHT22;19139;49.372;8.580;2024-03-23T13:33:20;7.60;99.90
32787;DHT22;19139;49.372;8.580;2024-03-23T13:35:55;7.30;99.90
32787;DHT22;19139;49.372;8.580;2024-03-23T13:38:25;7.40;99.90
32787;DHT22;19139;49.372;8.580;2024-03-23T13:41:00;7.30;99.90
32787;DHT22;19139;49.372;8.580;2024-03-23T13:43:28;7.40;99.90
32787;DHT22;19139;49.372;8.580;2024-03-23T13:45:58;7.70;99.90
32787;DHT22;19139;49.372;8.580;2024-03-23T13:48:26;7.80;99.90
32787;DHT22;19139;49.372;8.580;2024-03-23T13:51:00;8.20;99.90
32787;DHT22;19139;49.372;8.580;2024-03-23T13:53:26;8.40;99.90
32787;DHT22;19139;49.372;8.580;2024-03-23T13:55:52;8.80;99.90
32787;DHT22;19139;49.372;8.580;2024-03-23T13:58:18;9.10;99.90
32787;DHT22;19139;49.372;8.580;2024-03-23T14:00:44;9.30;99.90
32787;DHT22;19139;49.372;8.580;2024-03-23T14:03:11;9.40;99.90
32787;DHT22;19139;49.372;8.580;2024-03-23T14:05:37;9.30;99.90
32787;DHT22;19139;49.372;8.580;2024-03-23T14:08:08;9.40;99.90
32787;DHT22;19139;49.372;8.580;2024-03-23T14:10:34;9.30;99.90
32787;DHT22;19139;49.372;8.580;2024-03-23T14:13:03;9.80;99.90
32787;DHT22;19139;49.372;8.580;2024-03-23T14:15:29;10.60;99.90
32787;DHT22;19139;49.372;8.580;2024-03-23T14:17:59;10.90;99.90
32787;DHT22;19139;49.372;8.580;2024-03-23T14:20:25;11.30;99.90
32787;DHT22;19139;49.372;8.580;2024-03-23T14:22:52;11.50;99.90
32787;DHT22;19139;49.372;8.580;2024-03-23T14:25:18;10.90;99.90
32787;DHT22;19139;49.372;8.580;2024-03-23T14:27:45;11.00;99.90
32787;DHT22;19139;49.372;8.580;2024-03-23T14:30:11;10.70;99.90
32787;DHT22;19139;49.372;8.580;2024-03-23T14:32:38;10.70;99.90
32787;DHT22;19139;49.372;8.580;2024-03-23T14:35:04;11.10;99.90
32787;DHT22;19139;49.372;8.580;2024-03-23T14:37:30;11.30;99.90
32787;DHT22;19139;49.372;8.580;2024-03-23T14:39:57;11.10;99.90
32787;DHT22;19139;49.372;8.580;2024-03-23T14:42:25;10.90;99.90
32787;DHT22;19139;49.372;8.580;2024-03-23T14:44:51;10.80;99.90
32787;DHT22;19139;49.372;8.580;2024-03-23T14:47:18;10.80;99.90
32787;DHT22;19139;49.372;8.580;2024-03-23T14:49:45;10.60;99.90
32787;DHT22;19139;49.372;8.580;2024-03-23T14:52:16;10.60;99.90
32787;DHT22;19139;49.372;8.580;2024-03-23T14:54:43;10.80;99.00
32787;DHT22;19139;49.372;8.580;2024-03-23T14:57:09;11.10;99.90
32787;DHT22;19139;49.372;8.580;2024-03-23T14:59:36;11.10;99.90
32787;DHT22;19139;49.372;8.580;2024-03-23T15:02:04;11.00;99.90
32787;DHT22;19139;49.372;8.580;2024-03-23T15:04:30;11.10;99.70
32787;DHT22;19139;49.372;8.580;2024-03-23T15:06:56;10.80;98.90
32787;DHT22;19139;49.372;8.580;2024-03-23T15:09:22;10.80;99.70
32787;DHT22;19139;49.372;8.580;2024-03-23T15:11:48;10.80;99.90
32787;DHT22;19139;49.372;8.580;2024-03-23T15:14:14;10.80;99.90
32787;DHT22;19139;49.372;8.580;2024-03-23T15:16:39;10.90;96.90
32787;DHT22;19139;49.372;8.580;2024-03-23T15:19:08;11.00;96.60
32787;DHT22;19139;49.372;8.580;2024-03-23T15:21:34;11.10;97.10
32787;DHT22;19139;49.372;8.580;2024-03-23T15:24:00;11.10;96.70
32787;DHT22;19139;49.372;8.580;2024-03-23T15:26:25;10.90;96.20
32787;DHT22;19139;49.372;8.580;2024-03-23T15:28:51;10.90;96.50
32787;DHT22;19139;49.372;8.580;2024-03-23T15:31:35;10.90;95.90
32787;DHT22;19139;49.372;8.580;2024-03-23T15:34:01;10.90;96.00
32787;DHT22;19139;49.372;8.580;2024-03-23T15:36:27;10.80;96.20
32787;DHT22;19139;49.372;8.580;2024-03-23T15:38:53;10.60;95.70
32787;DHT22;19139;49.372;8.580;2024-03-23T15:41:20;10.70;95.50
32787;DHT22;19139;49.372;8.580;2024-03-23T15:43:48;10.60;95.50
32787;DHT22;19139;49.372;8.580;2024-03-23T15:46:14;10.60;95.70
32787;DHT22;19139;49.372;8.580;2024-03-23T15:48:41;10.60;95.30
32787;DHT22;19139;49.372;8.580;2024-03-23T15:51:12;10.60;96.00
32787;DHT22;19139;49.372;8.580;2024-03-23T15:53:38;8.60;99.90
32787;DHT22;19139;49.372;8.580;2024-03-23T15:56:04;6.20;99.90
32787;DHT22;19139;49.372;8.580;2024-03-23T15:58:31;5.40;99.90
32787;DHT22;19139;49.372;8.580;2024-03-23T16:01:02;5.50;99.90
32787;DHT22;19139;49.372;8.580;2024-03-23T16:03:29;5.20;99.90
32787;DHT22;19139;49.372;8.580;2024-03-23T16:05:57;5.10;99.90
32787;DHT22;19139;49.372;8.580;2024-03-23T16:08:23;5.40;99.90
32787;DHT22;19139;49.372;8.580;2024-03-23T16:10:49;5.50;99.90
32787;DHT22;19139;49.372;8.580;2024-03-23T16:13:16;5.80;99.90
32787;DHT22;19139;49.372;8.580;2024-03-23T16:15:42;6.30;99.90
32787;DHT22;19139;49.372;8.580;2024-03-23T16:18:08;6.60;99.90
32787;DHT22;19139;49.372;8.580;2024-03-23T16:20:34;7.00;99.90
32787;DHT22;19139;49.372;8.580;2024-03-23T16:23:00;7.30;99.90
32787;DHT22;19139;49.372;8.580;2024-03-23T16:25:26;7.10;99.90
32787;DHT22;19139;49.372;8.580;2024-03-23T16:27:55;7.40;99.90
32787;DHT22;19139;49.372;8.580;2024-03-23T16:30:21;7.50;99.90